Suomigracht — PHBT — position and weather

sailwx.info

Track history (hours):
 
Tides and Currents Weather Stations Pressure Air Temp Water Temp Dewpoint Dewpoint Depression Visibility Wind Speed Wind Dir Waves Ship Positions

Suomigracht

Last reported at 2017-Aug-15 21:29 UTC. Time now 2017-Aug-20 11:40 UTC.
Position N 58°44' W 003°58'.

Length 173 m; beam 26 m.

Type: Cargo ship. MMSI: 246100000.

Date/timePositionNaut miles runAvg speedWind from/ knotsBaromVisibWave heightAir tempDewpointWater temp
2017-Aug-15 21:29N 58°44' W 003°58'816.8
2017-Aug-15 21:00N 58°44' W 003°43'917.5
2017-Aug-15 20:31N 58°44' W 003°26'1019.8
2017-Aug-15 20:00N 58°43' W 003°07'918.7
2017-Aug-15 19:30N 58°37' W 002°53'816.1
2017-Aug-15 19:00N 58°34' W 002°39'28516.1
2017-Aug-15 01:19N 57°42' E 006°12'2016.5
2017-Aug-15 00:06N 57°39' E 006°50'117.2
2017-Aug-15 00:00N 57°39' E 006°52'11316.6
2017-Aug-14 17:11N 57°49' E 010°23'316.5
2017-Aug-14 17:00N 57°49' E 010°29'815.9
2017-Aug-14 16:30N 57°49' E 010°44'714.3
2017-Aug-14 16:01N 57°42' E 010°43'4 6.2
2017-Aug-14 15:26N 57°41' E 010°36'0 0.1
2017-Aug-14 14:59N 57°41' E 010°36'0 0.1
2017-Aug-14 14:26N 57°41' E 010°37'0 0.0
2017-Aug-14 13:53N 57°41' E 010°37'0 0.0
2017-Aug-14 13:21N 57°41' E 010°37'0 0.0
2017-Aug-14 12:26N 57°41' E 010°37'0 0.0
2017-Aug-14 11:59N 57°41' E 010°37'0 0.0
2017-Aug-14 11:29N 57°41' E 010°37'0 0.0
2017-Aug-14 10:59N 57°41' E 010°37'0 0.0
2017-Aug-14 10:17N 57°41' E 010°37'0 0.0
2017-Aug-14 09:59N 57°41' E 010°37'0 0.0
2017-Aug-14 09:05N 57°41' E 010°37'0 0.2
2017-Aug-14 08:56N 57°41' E 010°37'0 0.6
2017-Aug-14 08:29N 57°41' E 010°37'613.3
2017-Aug-14 08:00N 57°38' E 010°48'815.6
2017-Aug-14 07:30N 57°36' E 011°02'815.3
2017-Aug-14 07:00N 57°33' E 011°15'815.8
2017-Aug-14 06:30N 57°28' E 011°26'815.8
2017-Aug-14 06:00N 57°20' E 011°30'816.7
2017-Aug-14 05:30N 57°13' E 011°35'916.5
2017-Aug-14 04:59N 57°05' E 011°41'7014.9
2017-Aug-14 00:18N 55°58' E 011°01'515.8
2017-Aug-13 23:58N 55°54' E 010°56'715.2
2017-Aug-13 23:30N 55°48' E 010°49'815.0
2017-Aug-13 23:00N 55°41' E 010°47'714.8
2017-Aug-13 22:30N 55°33' E 010°50'815.4
2017-Aug-13 22:00N 55°27' E 010°58'714.0
2017-Aug-13 21:29N 55°20' E 011°03'612.3
2017-Aug-13 21:00N 55°15' E 011°06'714.3
2017-Aug-13 20:30N 55°08' E 011°03'714.9
2017-Aug-13 20:01N 55°00' E 011°02'714.1
2017-Aug-13 19:30N 54°55' E 010°54'713.8
2017-Aug-13 19:00N 54°48' E 010°52'714.2
2017-Aug-13 18:30N 54°41' E 010°56'815.2
2017-Aug-13 18:00N 54°38' E 011°07'815.1
2017-Aug-13 17:30N 54°34' E 011°19'815.2
2017-Aug-13 17:00N 54°31' E 011°31'815.2
2017-Aug-13 16:30N 54°28' E 011°43'815.1
2017-Aug-13 16:00N 54°26' E 011°55'815.1
2017-Aug-13 15:30N 54°26' E 012°08'714.8
2017-Aug-13 15:00N 54°33' E 012°14'6314.2
2017-Aug-13 10:33N 54°42' E 014°02'115.8
2017-Aug-13 10:30N 54°42' E 014°03'815.8
2017-Aug-13 09:59N 54°39' E 014°17'1415.7
2017-Aug-13 09:03N 54°39' E 014°42'416.1
2017-Aug-13 08:49N 54°40' E 014°48'716.3
2017-Aug-13 08:25N 54°41' E 014°60'10314.9
2017-Aug-13 01:29N 54°59' E 017°56'715.2
2017-Aug-13 01:00N 54°59' E 018°09'815.5
2017-Aug-13 00:30N 54°59' E 018°23'815.4
2017-Aug-13 00:00N 54°56' E 018°36'816.1
2017-Aug-12 23:30N 54°51' E 018°46'816.0
2017-Aug-12 23:00N 54°46' E 018°57'714.9
2017-Aug-12 22:30N 54°39' E 018°56'816.1
2017-Aug-12 22:00N 54°32' E 018°49'815.1
2017-Aug-12 21:30N 54°32' E 018°36'2 2.9
2017-Aug-12 20:58N 54°32' E 018°33'0 0.0
2017-Aug-12 20:28N 54°32' E 018°33'0 0.0
2017-Aug-12 19:58N 54°32' E 018°33'0 0.0
2017-Aug-12 19:25N 54°32' E 018°33'0 0.0
2017-Aug-12 18:58N 54°32' E 018°33'0 0.0
2017-Aug-12 18:28N 54°32' E 018°33'0 0.0
2017-Aug-12 17:58N 54°32' E 018°33'0 0.0
2017-Aug-12 17:28N 54°32' E 018°33'0 0.0
2017-Aug-12 16:58N 54°32' E 018°33'0 0.0
2017-Aug-12 16:28N 54°32' E 018°33'0 0.0
2017-Aug-12 15:58N 54°32' E 018°33'0 0.0
2017-Aug-12 15:28N 54°32' E 018°33'0 0.0
2017-Aug-12 14:58N 54°32' E 018°33'0 0.0
2017-Aug-12 14:28N 54°32' E 018°33'0 0.0
2017-Aug-12 13:58N 54°32' E 018°33'0 0.0
2017-Aug-12 13:28N 54°32' E 018°33'0 0.0
2017-Aug-12 12:58N 54°32' E 018°33'0 0.0
2017-Aug-12 12:28N 54°32' E 018°33'0 0.0
2017-Aug-12 11:58N 54°32' E 018°33'0 0.0
2017-Aug-12 11:28N 54°32' E 018°33'0 0.0
2017-Aug-12 10:58N 54°32' E 018°33'0 0.0
2017-Aug-12 10:28N 54°32' E 018°33'0 0.0
2017-Aug-12 09:58N 54°32' E 018°33'0 0.0
2017-Aug-12 09:28N 54°32' E 018°33'0 0.0
2017-Aug-12 08:58N 54°32' E 018°33'0 0.0
2017-Aug-12 08:28N 54°32' E 018°33'0 0.0
2017-Aug-12 08:01N 54°32' E 018°33'0 0.0
2017-Aug-12 07:31N 54°32' E 018°33'0 0.0
2017-Aug-12 07:01N 54°32' E 018°33'0 0.0
2017-Aug-12 06:30N 54°32' E 018°33'0 0.0
2017-Aug-12 06:00N 54°32' E 018°33'0 0.0
2017-Aug-12 05:30N 54°32' E 018°33'0 0.0
2017-Aug-12 05:00N 54°32' E 018°33'0 0.0
2017-Aug-12 04:30N 54°32' E 018°33'0 0.0
2017-Aug-12 04:00N 54°32' E 018°33'0 0.0
2017-Aug-12 03:30N 54°32' E 018°33'0 0.0
2017-Aug-12 03:00N 54°32' E 018°33'0 0.0
2017-Aug-12 02:30N 54°32' E 018°33'0 0.0
2017-Aug-12 02:00N 54°32' E 018°33'0 0.0
2017-Aug-12 01:30N 54°32' E 018°33'0 0.0
2017-Aug-12 01:00N 54°32' E 018°33'0 0.0
2017-Aug-12 00:30N 54°32' E 018°33'0 0.0
2017-Aug-12 00:00N 54°32' E 018°33'0 0.0
2017-Aug-11 23:30N 54°32' E 018°33'0 0.0
2017-Aug-11 23:00N 54°32' E 018°33'0 0.0
2017-Aug-11 22:30N 54°32' E 018°33'0 0.0
2017-Aug-11 22:00N 54°32' E 018°33'0 0.0
2017-Aug-11 21:30N 54°32' E 018°33'0 0.0
2017-Aug-11 21:00N 54°32' E 018°33'0 0.0
2017-Aug-11 20:30N 54°32' E 018°33'0 0.5
2017-Aug-11 20:00N 54°32' E 018°33'3 6.4
2017-Aug-11 19:30N 54°32' E 018°39'612.0
2017-Aug-11 19:00N 54°33' E 018°49'713.4
2017-Aug-11 18:30N 54°39' E 018°55'510.6
2017-Aug-11 18:01N 54°44' E 018°58'917.1
2017-Aug-11 17:31N 54°52' E 019°01'917.1
2017-Aug-11 17:00N 55°01' E 019°02'1117.3
2017-Aug-11 16:21N 55°12' E 019°04'12116.9
2017-Aug-11 09:12N 57°12' E 019°31'5916.9
2017-Aug-11 05:41N 58°10' E 019°44'417.0
2017-Aug-11 05:26N 58°15' E 019°46'817.0
2017-Aug-11 04:59N 58°22' E 019°47'817.2
2017-Aug-11 04:30N 58°31' E 019°50'917.1
2017-Aug-11 04:00N 58°39' E 019°52'816.9
2017-Aug-11 03:30N 58°47' E 019°54'816.7
2017-Aug-11 03:00N 58°56' E 019°55'816.6
2017-Aug-11 02:30N 59°04' E 019°57'816.5
2017-Aug-11 02:00N 59°12' E 019°59'816.5
2017-Aug-11 01:30N 59°20' E 020°01'816.5
2017-Aug-11 01:00N 59°28' E 020°04'815.2
2017-Aug-11 00:30N 59°36' E 020°00'816.7
2017-Aug-11 00:01N 59°42' E 019°49'816.9
2017-Aug-10 23:30N 59°48' E 019°38'816.8
2017-Aug-10 23:01N 59°55' E 019°27'917.1
2017-Aug-10 22:30N 60°01' E 019°16'917.1
2017-Aug-10 22:01N 60°08' E 019°05'816.1
2017-Aug-10 21:30N 60°15' E 018°60'816.8
2017-Aug-10 21:01N 60°24' E 018°60'816.3
2017-Aug-10 20:30N 60°32' E 019°04'816.6
2017-Aug-10 20:00N 60°36' E 019°18'816.7
2017-Aug-10 19:30N 60°41' E 019°32'816.6
2017-Aug-10 19:00N 60°45' E 019°47'816.5
2017-Aug-10 18:30N 60°50' E 020°01'816.4
2017-Aug-10 18:00N 60°54' E 020°15'816.4
2017-Aug-10 17:30N 60°59' E 020°29'816.3
2017-Aug-10 17:00N 61°03' E 020°43'816.2
2017-Aug-10 16:30N 61°07' E 020°57'713.6
2017-Aug-10 16:00N 61°07' E 021°11'5 9.2
2017-Aug-10 15:30N 61°06' E 021°21'3 5.8
2017-Aug-10 15:00N 61°08' E 021°26'0 0.0
2017-Aug-10 14:28N 61°08' E 021°26'0 0.0
2017-Aug-10 13:28N 61°08' E 021°26'0 0.0
2017-Aug-10 12:58N 61°08' E 021°26'0 0.0
2017-Aug-10 12:28N 61°08' E 021°26'0 0.0
2017-Aug-10 11:58N 61°08' E 021°26'0 0.0
2017-Aug-10 11:28N 61°08' E 021°26'0 0.0
2017-Aug-10 10:58N 61°08' E 021°26'0 0.0
2017-Aug-10 10:28N 61°08' E 021°26'0 0.0
2017-Aug-10 09:58N 61°08' E 021°26'0 0.0
2017-Aug-10 09:28N 61°08' E 021°26'0 0.0
2017-Aug-10 08:58N 61°08' E 021°26'0 0.0
2017-Aug-10 08:28N 61°08' E 021°26'0 0.0
2017-Aug-10 07:58N 61°08' E 021°26'0 0.0
2017-Aug-10 07:28N 61°08' E 021°26'0 0.0
2017-Aug-10 06:58N 61°08' E 021°26'0 0.0
2017-Aug-10 06:28N 61°08' E 021°26'0 0.0
2017-Aug-10 05:58N 61°08' E 021°26'0 0.0
2017-Aug-10 05:28N 61°08' E 021°26'0 0.0
2017-Aug-10 04:58N 61°08' E 021°26'0 0.0
2017-Aug-10 04:31N 61°08' E 021°26'0 0.0
2017-Aug-10 04:01N 61°08' E 021°26'0 0.0
2017-Aug-10 03:30N 61°08' E 021°26'0 0.0
2017-Aug-10 03:00N 61°08' E 021°26'0 0.0
2017-Aug-10 02:30N 61°08' E 021°26'0 0.0
2017-Aug-10 02:00N 61°08' E 021°26'0 0.0
2017-Aug-10 01:30N 61°08' E 021°26'0 0.0
2017-Aug-10 01:00N 61°08' E 021°26'0 0.0
2017-Aug-10 00:30N 61°08' E 021°26'0 0.0
2017-Aug-10 00:00N 61°08' E 021°26'0 0.0
2017-Aug-09 23:30N 61°08' E 021°26'0 0.0
2017-Aug-09 23:00N 61°08' E 021°26'0 0.0
2017-Aug-09 22:30N 61°08' E 021°26'0 0.0
2017-Aug-09 22:00N 61°08' E 021°26'0 0.0
2017-Aug-09 21:30N 61°08' E 021°26'0 0.0
2017-Aug-09 20:57N 61°08' E 021°26'0 0.0
2017-Aug-09 20:29N 61°08' E 021°26'0 0.0
2017-Aug-09 20:00N 61°08' E 021°26'0 0.0
2017-Aug-09 19:30N 61°08' E 021°26'0 0.0
2017-Aug-09 19:00N 61°08' E 021°26'0 0.0
2017-Aug-09 18:30N 61°08' E 021°26'0 0.0
2017-Aug-09 18:00N 61°08' E 021°26'0 0.0
2017-Aug-09 17:27N 61°08' E 021°26'0 0.0
2017-Aug-09 16:51N 61°08' E 021°26'0 0.0
2017-Aug-09 16:30N 61°08' E 021°26'0 0.0
2017-Aug-09 15:54N 61°08' E 021°26'0 0.0
2017-Aug-09 15:21N 61°08' E 021°26'0 0.0
2017-Aug-09 15:00N 61°08' E 021°26'0 0.0
2017-Aug-09 14:30N 61°08' E 021°26'0 0.0
2017-Aug-09 14:00N 61°08' E 021°26'0 0.0
2017-Aug-09 13:30N 61°08' E 021°26'0 0.0
2017-Aug-09 13:00N 61°08' E 021°26'0 0.0
2017-Aug-09 12:30N 61°08' E 021°26'0 0.0
2017-Aug-09 12:00N 61°08' E 021°26'0 0.0
2017-Aug-09 11:30N 61°08' E 021°26'0 0.0
2017-Aug-09 11:00N 61°08' E 021°26'0 0.0
2017-Aug-09 10:27N 61°08' E 021°26'0 0.0
2017-Aug-09 10:00N 61°08' E 021°26'0 0.0
2017-Aug-09 09:30N 61°08' E 021°26'0 0.0
2017-Aug-09 09:00N 61°08' E 021°26'0 0.0
2017-Aug-09 08:30N 61°08' E 021°26'0 0.0
2017-Aug-09 08:00N 61°08' E 021°26'0 0.0
2017-Aug-09 07:30N 61°08' E 021°26'0 0.0
2017-Aug-09 07:00N 61°08' E 021°26'0 0.0
2017-Aug-09 06:30N 61°08' E 021°26'0 0.0
2017-Aug-09 06:00N 61°08' E 021°26'0 0.0
2017-Aug-09 05:30N 61°08' E 021°26'0 0.0
2017-Aug-09 05:00N 61°08' E 021°26'0 0.0
2017-Aug-09 04:30N 61°08' E 021°26'0 0.0
2017-Aug-09 04:00N 61°08' E 021°26'0 0.0
2017-Aug-09 03:30N 61°08' E 021°26'0 0.6
2017-Aug-09 03:00N 61°07' E 021°25'3 5.8
2017-Aug-09 02:31N 61°06' E 021°20'612.6
2017-Aug-09 02:00N 61°08' E 021°08'510.2
2017-Aug-09 01:30N 61°12' E 021°00'815.6
2017-Aug-09 01:00N 61°19' E 020°55'815.9
2017-Aug-09 00:30N 61°26' E 020°49'816.0
2017-Aug-09 00:00N 61°34' E 020°43'815.7
2017-Aug-08 23:30N 61°41' E 020°37'815.6
2017-Aug-08 23:00N 61°48' E 020°31'815.7
2017-Aug-08 22:30N 61°56' E 020°25'815.7
2017-Aug-08 22:00N 62°03' E 020°19'815.7
2017-Aug-08 21:30N 62°10' E 020°12'815.7
2017-Aug-08 21:00N 62°18' E 020°07'815.8
2017-Aug-08 20:30N 62°25' E 020°01'816.0
2017-Aug-08 20:00N 62°33' E 019°54'5 9.7
2017-Aug-08 19:30N 62°37' E 019°50'612.0
2017-Aug-08 19:01N 62°43' E 019°46'815.2
2017-Aug-08 18:31N 62°50' E 019°40'5 9.2
2017-Aug-08 18:00N 62°54' E 019°36'5 9.8
2017-Aug-08 17:30N 62°59' E 019°32'612.1
2017-Aug-08 17:00N 63°04' E 019°27'3 6.5
2017-Aug-08 16:30N 63°07' E 019°25'3 6.4
2017-Aug-08 16:00N 63°10' E 019°22'5 9.3
2017-Aug-08 15:31N 63°15' E 019°19'3 5.4
2017-Aug-08 15:00N 63°17' E 019°16'3 5.7
2017-Aug-08 14:30N 63°18' E 019°10'1 2.1
2017-Aug-08 14:00N 63°19' E 019°09'0 0.0
2017-Aug-08 13:26N 63°19' E 019°09'0 0.0
2017-Aug-08 12:56N 63°19' E 019°09'0 0.0
2017-Aug-08 11:23N 63°19' E 019°09'0 0.0
2017-Aug-08 07:35N 63°19' E 019°09'0 0.0
2017-Aug-08 07:20N 63°19' E 019°09'0 0.0
2017-Aug-08 06:59N 63°19' E 019°09'0 0.0
2017-Aug-08 06:29N 63°19' E 019°09'0 0.0
2017-Aug-08 05:59N 63°19' E 019°09'0 0.0
2017-Aug-08 05:26N 63°19' E 019°09'0 0.0
2017-Aug-08 04:47N 63°19' E 019°09'0 0.0
2017-Aug-08 04:29N 63°19' E 019°09'0 0.0
2017-Aug-08 03:56N 63°19' E 019°09'0 0.0
2017-Aug-08 02:53N 63°19' E 019°09'0 0.0
2017-Aug-08 01:05N 63°19' E 019°09'0 0.0
2017-Aug-08 00:50N 63°19' E 019°09'0 0.0
2017-Aug-07 23:35N 63°19' E 019°09'0 0.0
2017-Aug-07 23:29N 63°19' E 019°09'0 0.0
2017-Aug-07 22:59N 63°19' E 019°09'0 0.0
2017-Aug-07 22:29N 63°19' E 019°09'0 0.0
2017-Aug-07 21:59N 63°19' E 019°09'0 0.0
2017-Aug-07 21:29N 63°19' E 019°09'0 0.0
2017-Aug-07 20:59N 63°19' E 019°09'0 0.0
2017-Aug-07 20:26N 63°19' E 019°09'0 0.0
2017-Aug-07 19:49N 63°19' E 019°09'0 0.0
2017-Aug-07 19:30N 63°19' E 019°09'0 0.0
2017-Aug-07 18:59N 63°19' E 019°09'0 0.0
2017-Aug-07 18:11N 63°19' E 019°09'0 0.0
2017-Aug-07 17:47N 63°19' E 019°09'0 0.0
2017-Aug-07 17:26N 63°19' E 019°09'0 0.0
2017-Aug-07 16:59N 63°19' E 019°09'0 0.0
2017-Aug-07 16:29N 63°19' E 019°09'0 0.0
2017-Aug-07 15:50N 63°19' E 019°09'0 0.0
2017-Aug-07 14:38N 63°19' E 019°09'0 0.0
2017-Aug-07 14:17N 63°19' E 019°09'43 1.2
2017-Aug-06 02:38N 62°36' E 019°13'212.5
2017-Aug-06 02:30N 62°34' E 019°13'712.7
2017-Aug-06 01:57N 62°27' E 019°12'1514.0
2017-Aug-06 00:53N 62°12' E 019°11'514.2
2017-Aug-06 00:30N 62°07' E 019°11'  
Track history (hours):
 
Tides and Currents Weather Stations Pressure Air Temp Water Temp Dewpoint Dewpoint Depression Visibility Wind Speed Wind Dir Waves Ship Positions

Suomigracht

Last reported at 2017-Aug-15 21:29 UTC. Time now 2017-Aug-20 11:40 UTC.
Position N 58°44' W 003°58'.

Length 173 m; beam 26 m.

Type: Cargo ship. MMSI: 246100000.

Date/timePositionNaut miles runAvg speedWind from/ knotsBaromVisibWave heightAir tempDewpointWater temp
2017-Aug-15 21:29N 58°44' W 003°58'816.8
2017-Aug-15 21:00N 58°44' W 003°43'917.5
2017-Aug-15 20:31N 58°44' W 003°26'1019.8
2017-Aug-15 20:00N 58°43' W 003°07'918.7
2017-Aug-15 19:30N 58°37' W 002°53'816.1
2017-Aug-15 19:00N 58°34' W 002°39'28516.1
2017-Aug-15 01:19N 57°42' E 006°12'2016.5
2017-Aug-15 00:06N 57°39' E 006°50'117.2
2017-Aug-15 00:00N 57°39' E 006°52'11316.6
2017-Aug-14 17:11N 57°49' E 010°23'316.5
2017-Aug-14 17:00N 57°49' E 010°29'815.9
2017-Aug-14 16:30N 57°49' E 010°44'714.3
2017-Aug-14 16:01N 57°42' E 010°43'4 6.2
2017-Aug-14 15:26N 57°41' E 010°36'0 0.1
2017-Aug-14 14:59N 57°41' E 010°36'0 0.1
2017-Aug-14 14:26N 57°41' E 010°37'0 0.0
2017-Aug-14 13:53N 57°41' E 010°37'0 0.0
2017-Aug-14 13:21N 57°41' E 010°37'0 0.0
2017-Aug-14 12:26N 57°41' E 010°37'0 0.0
2017-Aug-14 11:59N 57°41' E 010°37'0 0.0
2017-Aug-14 11:29N 57°41' E 010°37'0 0.0
2017-Aug-14 10:59N 57°41' E 010°37'0 0.0
2017-Aug-14 10:17N 57°41' E 010°37'0 0.0
2017-Aug-14 09:59N 57°41' E 010°37'0 0.0
2017-Aug-14 09:05N 57°41' E 010°37'0 0.2
2017-Aug-14 08:56N 57°41' E 010°37'0 0.6
2017-Aug-14 08:29N 57°41' E 010°37'613.3
2017-Aug-14 08:00N 57°38' E 010°48'815.6
2017-Aug-14 07:30N 57°36' E 011°02'815.3
2017-Aug-14 07:00N 57°33' E 011°15'815.8
2017-Aug-14 06:30N 57°28' E 011°26'815.8
2017-Aug-14 06:00N 57°20' E 011°30'816.7
2017-Aug-14 05:30N 57°13' E 011°35'916.5
2017-Aug-14 04:59N 57°05' E 011°41'7014.9
2017-Aug-14 00:18N 55°58' E 011°01'515.8
2017-Aug-13 23:58N 55°54' E 010°56'715.2
2017-Aug-13 23:30N 55°48' E 010°49'815.0
2017-Aug-13 23:00N 55°41' E 010°47'714.8
2017-Aug-13 22:30N 55°33' E 010°50'815.4
2017-Aug-13 22:00N 55°27' E 010°58'714.0
2017-Aug-13 21:29N 55°20' E 011°03'612.3
2017-Aug-13 21:00N 55°15' E 011°06'714.3
2017-Aug-13 20:30N 55°08' E 011°03'714.9
2017-Aug-13 20:01N 55°00' E 011°02'714.1
2017-Aug-13 19:30N 54°55' E 010°54'713.8
2017-Aug-13 19:00N 54°48' E 010°52'714.2
2017-Aug-13 18:30N 54°41' E 010°56'815.2
2017-Aug-13 18:00N 54°38' E 011°07'815.1
2017-Aug-13 17:30N 54°34' E 011°19'815.2
2017-Aug-13 17:00N 54°31' E 011°31'815.2
2017-Aug-13 16:30N 54°28' E 011°43'815.1
2017-Aug-13 16:00N 54°26' E 011°55'815.1
2017-Aug-13 15:30N 54°26' E 012°08'714.8
2017-Aug-13 15:00N 54°33' E 012°14'6314.2
2017-Aug-13 10:33N 54°42' E 014°02'115.8
2017-Aug-13 10:30N 54°42' E 014°03'815.8
2017-Aug-13 09:59N 54°39' E 014°17'1415.7
2017-Aug-13 09:03N 54°39' E 014°42'416.1
2017-Aug-13 08:49N 54°40' E 014°48'716.3
2017-Aug-13 08:25N 54°41' E 014°60'10314.9
2017-Aug-13 01:29N 54°59' E 017°56'715.2
2017-Aug-13 01:00N 54°59' E 018°09'815.5
2017-Aug-13 00:30N 54°59' E 018°23'815.4
2017-Aug-13 00:00N 54°56' E 018°36'816.1
2017-Aug-12 23:30N 54°51' E 018°46'816.0
2017-Aug-12 23:00N 54°46' E 018°57'714.9
2017-Aug-12 22:30N 54°39' E 018°56'816.1
2017-Aug-12 22:00N 54°32' E 018°49'815.1
2017-Aug-12 21:30N 54°32' E 018°36'2 2.9
2017-Aug-12 20:58N 54°32' E 018°33'0 0.0
2017-Aug-12 20:28N 54°32' E 018°33'0 0.0
2017-Aug-12 19:58N 54°32' E 018°33'0 0.0
2017-Aug-12 19:25N 54°32' E 018°33'0 0.0
2017-Aug-12 18:58N 54°32' E 018°33'0 0.0
2017-Aug-12 18:28N 54°32' E 018°33'0 0.0
2017-Aug-12 17:58N 54°32' E 018°33'0 0.0
2017-Aug-12 17:28N 54°32' E 018°33'0 0.0
2017-Aug-12 16:58N 54°32' E 018°33'0 0.0
2017-Aug-12 16:28N 54°32' E 018°33'0 0.0
2017-Aug-12 15:58N 54°32' E 018°33'0 0.0
2017-Aug-12 15:28N 54°32' E 018°33'0 0.0
2017-Aug-12 14:58N 54°32' E 018°33'0 0.0
2017-Aug-12 14:28N 54°32' E 018°33'0 0.0
2017-Aug-12 13:58N 54°32' E 018°33'0 0.0
2017-Aug-12 13:28N 54°32' E 018°33'0 0.0
2017-Aug-12 12:58N 54°32' E 018°33'0 0.0
2017-Aug-12 12:28N 54°32' E 018°33'0 0.0
2017-Aug-12 11:58N 54°32' E 018°33'0 0.0
2017-Aug-12 11:28N 54°32' E 018°33'0 0.0
2017-Aug-12 10:58N 54°32' E 018°33'0 0.0
2017-Aug-12 10:28N 54°32' E 018°33'0 0.0
2017-Aug-12 09:58N 54°32' E 018°33'0 0.0
2017-Aug-12 09:28N 54°32' E 018°33'0 0.0
2017-Aug-12 08:58N 54°32' E 018°33'0 0.0
2017-Aug-12 08:28N 54°32' E 018°33'0 0.0
2017-Aug-12 08:01N 54°32' E 018°33'0 0.0
2017-Aug-12 07:31N 54°32' E 018°33'0 0.0
2017-Aug-12 07:01N 54°32' E 018°33'0 0.0
2017-Aug-12 06:30N 54°32' E 018°33'0 0.0
2017-Aug-12 06:00N 54°32' E 018°33'0 0.0
2017-Aug-12 05:30N 54°32' E 018°33'0 0.0
2017-Aug-12 05:00N 54°32' E 018°33'0 0.0
2017-Aug-12 04:30N 54°32' E 018°33'0 0.0
2017-Aug-12 04:00N 54°32' E 018°33'0 0.0
2017-Aug-12 03:30N 54°32' E 018°33'0 0.0
2017-Aug-12 03:00N 54°32' E 018°33'0 0.0
2017-Aug-12 02:30N 54°32' E 018°33'0 0.0
2017-Aug-12 02:00N 54°32' E 018°33'0 0.0
2017-Aug-12 01:30N 54°32' E 018°33'0 0.0
2017-Aug-12 01:00N 54°32' E 018°33'0 0.0
2017-Aug-12 00:30N 54°32' E 018°33'0 0.0
2017-Aug-12 00:00N 54°32' E 018°33'0 0.0
2017-Aug-11 23:30N 54°32' E 018°33'0 0.0
2017-Aug-11 23:00N 54°32' E 018°33'0 0.0
2017-Aug-11 22:30N 54°32' E 018°33'0 0.0
2017-Aug-11 22:00N 54°32' E 018°33'0 0.0
2017-Aug-11 21:30N 54°32' E 018°33'0 0.0
2017-Aug-11 21:00N 54°32' E 018°33'0 0.0
2017-Aug-11 20:30N 54°32' E 018°33'0 0.5
2017-Aug-11 20:00N 54°32' E 018°33'3 6.4
2017-Aug-11 19:30N 54°32' E 018°39'612.0
2017-Aug-11 19:00N 54°33' E 018°49'713.4
2017-Aug-11 18:30N 54°39' E 018°55'510.6
2017-Aug-11 18:01N 54°44' E 018°58'917.1
2017-Aug-11 17:31N 54°52' E 019°01'917.1
2017-Aug-11 17:00N 55°01' E 019°02'1117.3
2017-Aug-11 16:21N 55°12' E 019°04'12116.9
2017-Aug-11 09:12N 57°12' E 019°31'5916.9
2017-Aug-11 05:41N 58°10' E 019°44'417.0
2017-Aug-11 05:26N 58°15' E 019°46'817.0
2017-Aug-11 04:59N 58°22' E 019°47'817.2
2017-Aug-11 04:30N 58°31' E 019°50'917.1
2017-Aug-11 04:00N 58°39' E 019°52'816.9
2017-Aug-11 03:30N 58°47' E 019°54'816.7
2017-Aug-11 03:00N 58°56' E 019°55'816.6
2017-Aug-11 02:30N 59°04' E 019°57'816.5
2017-Aug-11 02:00N 59°12' E 019°59'816.5
2017-Aug-11 01:30N 59°20' E 020°01'816.5
2017-Aug-11 01:00N 59°28' E 020°04'815.2
2017-Aug-11 00:30N 59°36' E 020°00'816.7
2017-Aug-11 00:01N 59°42' E 019°49'816.9
2017-Aug-10 23:30N 59°48' E 019°38'816.8
2017-Aug-10 23:01N 59°55' E 019°27'917.1
2017-Aug-10 22:30N 60°01' E 019°16'917.1
2017-Aug-10 22:01N 60°08' E 019°05'816.1
2017-Aug-10 21:30N 60°15' E 018°60'816.8
2017-Aug-10 21:01N 60°24' E 018°60'816.3
2017-Aug-10 20:30N 60°32' E 019°04'816.6
2017-Aug-10 20:00N 60°36' E 019°18'816.7
2017-Aug-10 19:30N 60°41' E 019°32'816.6
2017-Aug-10 19:00N 60°45' E 019°47'816.5
2017-Aug-10 18:30N 60°50' E 020°01'816.4
2017-Aug-10 18:00N 60°54' E 020°15'816.4
2017-Aug-10 17:30N 60°59' E 020°29'816.3
2017-Aug-10 17:00N 61°03' E 020°43'816.2
2017-Aug-10 16:30N 61°07' E 020°57'713.6
2017-Aug-10 16:00N 61°07' E 021°11'5 9.2
2017-Aug-10 15:30N 61°06' E 021°21'3 5.8
2017-Aug-10 15:00N 61°08' E 021°26'0 0.0
2017-Aug-10 14:28N 61°08' E 021°26'0 0.0
2017-Aug-10 13:28N 61°08' E 021°26'0 0.0
2017-Aug-10 12:58N 61°08' E 021°26'0 0.0
2017-Aug-10 12:28N 61°08' E 021°26'0 0.0
2017-Aug-10 11:58N 61°08' E 021°26'0 0.0
2017-Aug-10 11:28N 61°08' E 021°26'0 0.0
2017-Aug-10 10:58N 61°08' E 021°26'0 0.0
2017-Aug-10 10:28N 61°08' E 021°26'0 0.0
2017-Aug-10 09:58N 61°08' E 021°26'0 0.0
2017-Aug-10 09:28N 61°08' E 021°26'0 0.0
2017-Aug-10 08:58N 61°08' E 021°26'0 0.0
2017-Aug-10 08:28N 61°08' E 021°26'0 0.0
2017-Aug-10 07:58N 61°08' E 021°26'0 0.0
2017-Aug-10 07:28N 61°08' E 021°26'0 0.0
2017-Aug-10 06:58N 61°08' E 021°26'0 0.0
2017-Aug-10 06:28N 61°08' E 021°26'0 0.0
2017-Aug-10 05:58N 61°08' E 021°26'0 0.0
2017-Aug-10 05:28N 61°08' E 021°26'0 0.0
2017-Aug-10 04:58N 61°08' E 021°26'0 0.0
2017-Aug-10 04:31N 61°08' E 021°26'0 0.0
2017-Aug-10 04:01N 61°08' E 021°26'0 0.0
2017-Aug-10 03:30N 61°08' E 021°26'0 0.0
2017-Aug-10 03:00N 61°08' E 021°26'0 0.0
2017-Aug-10 02:30N 61°08' E 021°26'0 0.0
2017-Aug-10 02:00N 61°08' E 021°26'0 0.0
2017-Aug-10 01:30N 61°08' E 021°26'0 0.0
2017-Aug-10 01:00N 61°08' E 021°26'0 0.0
2017-Aug-10 00:30N 61°08' E 021°26'0 0.0
2017-Aug-10 00:00N 61°08' E 021°26'0 0.0
2017-Aug-09 23:30N 61°08' E 021°26'0 0.0
2017-Aug-09 23:00N 61°08' E 021°26'0 0.0
2017-Aug-09 22:30N 61°08' E 021°26'0 0.0
2017-Aug-09 22:00N 61°08' E 021°26'0 0.0
2017-Aug-09 21:30N 61°08' E 021°26'0 0.0
2017-Aug-09 20:57N 61°08' E 021°26'0 0.0
2017-Aug-09 20:29N 61°08' E 021°26'0 0.0
2017-Aug-09 20:00N 61°08' E 021°26'0 0.0
2017-Aug-09 19:30N 61°08' E 021°26'0 0.0
2017-Aug-09 19:00N 61°08' E 021°26'0 0.0
2017-Aug-09 18:30N 61°08' E 021°26'0 0.0
2017-Aug-09 18:00N 61°08' E 021°26'0 0.0
2017-Aug-09 17:27N 61°08' E 021°26'0 0.0
2017-Aug-09 16:51N 61°08' E 021°26'0 0.0
2017-Aug-09 16:30N 61°08' E 021°26'0 0.0
2017-Aug-09 15:54N 61°08' E 021°26'0 0.0
2017-Aug-09 15:21N 61°08' E 021°26'0 0.0
2017-Aug-09 15:00N 61°08' E 021°26'0 0.0
2017-Aug-09 14:30N 61°08' E 021°26'0 0.0
2017-Aug-09 14:00N 61°08' E 021°26'0 0.0
2017-Aug-09 13:30N 61°08' E 021°26'0 0.0
2017-Aug-09 13:00N 61°08' E 021°26'0 0.0
2017-Aug-09 12:30N 61°08' E 021°26'0 0.0
2017-Aug-09 12:00N 61°08' E 021°26'0 0.0
2017-Aug-09 11:30N 61°08' E 021°26'0 0.0
2017-Aug-09 11:00N 61°08' E 021°26'0 0.0
2017-Aug-09 10:27N 61°08' E 021°26'0 0.0
2017-Aug-09 10:00N 61°08' E 021°26'0 0.0
2017-Aug-09 09:30N 61°08' E 021°26'0 0.0
2017-Aug-09 09:00N 61°08' E 021°26'0 0.0
2017-Aug-09 08:30N 61°08' E 021°26'0 0.0
2017-Aug-09 08:00N 61°08' E 021°26'0 0.0
2017-Aug-09 07:30N 61°08' E 021°26'0 0.0
2017-Aug-09 07:00N 61°08' E 021°26'0 0.0
2017-Aug-09 06:30N 61°08' E 021°26'0 0.0
2017-Aug-09 06:00N 61°08' E 021°26'0 0.0
2017-Aug-09 05:30N 61°08' E 021°26'0 0.0
2017-Aug-09 05:00N 61°08' E 021°26'0 0.0
2017-Aug-09 04:30N 61°08' E 021°26'0 0.0
2017-Aug-09 04:00N 61°08' E 021°26'0 0.0
2017-Aug-09 03:30N 61°08' E 021°26'0 0.6
2017-Aug-09 03:00N 61°07' E 021°25'3 5.8
2017-Aug-09 02:31N 61°06' E 021°20'612.6
2017-Aug-09 02:00N 61°08' E 021°08'510.2
2017-Aug-09 01:30N 61°12' E 021°00'815.6
2017-Aug-09 01:00N 61°19' E 020°55'815.9
2017-Aug-09 00:30N 61°26' E 020°49'816.0
2017-Aug-09 00:00N 61°34' E 020°43'815.7
2017-Aug-08 23:30N 61°41' E 020°37'815.6
2017-Aug-08 23:00N 61°48' E 020°31'815.7
2017-Aug-08 22:30N 61°56' E 020°25'815.7
2017-Aug-08 22:00N 62°03' E 020°19'815.7
2017-Aug-08 21:30N 62°10' E 020°12'815.7
2017-Aug-08 21:00N 62°18' E 020°07'815.8
2017-Aug-08 20:30N 62°25' E 020°01'816.0
2017-Aug-08 20:00N 62°33' E 019°54'5 9.7
2017-Aug-08 19:30N 62°37' E 019°50'612.0
2017-Aug-08 19:01N 62°43' E 019°46'815.2
2017-Aug-08 18:31N 62°50' E 019°40'5 9.2
2017-Aug-08 18:00N 62°54' E 019°36'5 9.8
2017-Aug-08 17:30N 62°59' E 019°32'612.1
2017-Aug-08 17:00N 63°04' E 019°27'3 6.5
2017-Aug-08 16:30N 63°07' E 019°25'3 6.4
2017-Aug-08 16:00N 63°10' E 019°22'5 9.3
2017-Aug-08 15:31N 63°15' E 019°19'3 5.4
2017-Aug-08 15:00N 63°17' E 019°16'3 5.7
2017-Aug-08 14:30N 63°18' E 019°10'1 2.1
2017-Aug-08 14:00N 63°19' E 019°09'0 0.0
2017-Aug-08 13:26N 63°19' E 019°09'0 0.0
2017-Aug-08 12:56N 63°19' E 019°09'0 0.0
2017-Aug-08 11:23N 63°19' E 019°09'0 0.0
2017-Aug-08 07:35N 63°19' E 019°09'0 0.0
2017-Aug-08 07:20N 63°19' E 019°09'0 0.0
2017-Aug-08 06:59N 63°19' E 019°09'0 0.0
2017-Aug-08 06:29N 63°19' E 019°09'0 0.0
2017-Aug-08 05:59N 63°19' E 019°09'0 0.0
2017-Aug-08 05:26N 63°19' E 019°09'0 0.0
2017-Aug-08 04:47N 63°19' E 019°09'0 0.0
2017-Aug-08 04:29N 63°19' E 019°09'0 0.0
2017-Aug-08 03:56N 63°19' E 019°09'0 0.0
2017-Aug-08 02:53N 63°19' E 019°09'0 0.0
2017-Aug-08 01:05N 63°19' E 019°09'0 0.0
2017-Aug-08 00:50N 63°19' E 019°09'0 0.0
2017-Aug-07 23:35N 63°19' E 019°09'0 0.0
2017-Aug-07 23:29N 63°19' E 019°09'0 0.0
2017-Aug-07 22:59N 63°19' E 019°09'0 0.0
2017-Aug-07 22:29N 63°19' E 019°09'0 0.0
2017-Aug-07 21:59N 63°19' E 019°09'0 0.0
2017-Aug-07 21:29N 63°19' E 019°09'0 0.0
2017-Aug-07 20:59N 63°19' E 019°09'0 0.0
2017-Aug-07 20:26N 63°19' E 019°09'0 0.0
2017-Aug-07 19:49N 63°19' E 019°09'0 0.0
2017-Aug-07 19:30N 63°19' E 019°09'0 0.0
2017-Aug-07 18:59N 63°19' E 019°09'0 0.0
2017-Aug-07 18:11N 63°19' E 019°09'0 0.0
2017-Aug-07 17:47N 63°19' E 019°09'0 0.0
2017-Aug-07 17:26N 63°19' E 019°09'0 0.0
2017-Aug-07 16:59N 63°19' E 019°09'0 0.0
2017-Aug-07 16:29N 63°19' E 019°09'0 0.0
2017-Aug-07 15:50N 63°19' E 019°09'0 0.0
2017-Aug-07 14:38N 63°19' E 019°09'0 0.0
2017-Aug-07 14:17N 63°19' E 019°09'43 1.2
2017-Aug-06 02:38N 62°36' E 019°13'212.5
2017-Aug-06 02:30N 62°34' E 019°13'712.7
2017-Aug-06 01:57N 62°27' E 019°12'1514.0
2017-Aug-06 00:53N 62°12' E 019°11'514.2
2017-Aug-06 00:30N 62°07' E 019°11'  

Dump ship's entire track history